createdAt,value
2019-03-24T00:02:01.234Z,65.30
2019-03-24T00:04:33.974Z,67.13
2019-03-24T00:07:06.854Z,66.04
2019-03-24T00:09:39.685Z,69.31
2019-03-24T00:12:12.653Z,65.79
2019-03-24T00:14:45.383Z,65.56
2019-03-24T00:17:17.854Z,71.35
2019-03-24T00:19:50.584Z,72.46
2019-03-24T00:22:23.157Z,67.63
2019-03-24T00:24:56.334Z,68.55
2019-03-24T00:27:29.805Z,71.60
2019-03-24T00:30:02.364Z,69.31
2019-03-24T00:32:35.154Z,69.44
2019-03-24T00:35:07.955Z,72.37
2019-03-24T00:37:40.674Z,70.43
2019-03-24T00:40:13.804Z,74.98
2019-03-24T00:42:46.494Z,72.31
2019-03-24T00:45:19.268Z,68.53
2019-03-24T00:47:52.141Z,69.26
2019-03-24T00:50:24.925Z,71.49
2019-03-24T00:52:57.534Z,69.04
2019-03-24T00:55:30.354Z,74.24
2019-03-24T00:58:02.854Z,72.30
2019-03-24T01:00:46.976Z,69.98
2019-03-24T01:03:19.943Z,69.96
2019-03-24T01:05:53.147Z,68.40
2019-03-24T01:08:25.804Z,69.07
2019-03-24T01:10:58.483Z,72.34
2019-03-24T01:13:31.084Z,69.44
2019-03-24T01:16:03.736Z,68.48
2019-03-24T01:18:36.297Z,68.51
2019-03-24T01:21:09.338Z,73.79
2019-03-24T01:23:42.034Z,71.29
2019-03-24T01:26:14.667Z,68.54
2019-03-24T01:28:47.227Z,68.40
2019-03-24T01:31:19.805Z,68.41
2019-03-24T01:33:52.574Z,69.10
2019-03-24T01:36:25.309Z,69.45
2019-03-24T01:38:58.406Z,69.07
2019-03-24T01:41:31.894Z,67.52
2019-03-24T01:44:05.180Z,67.57
2019-03-24T01:46:37.983Z,66.82
2019-03-24T01:49:10.884Z,67.69
2019-03-24T01:51:45.785Z,67.80
2019-03-24T01:54:18.505Z,67.86
2019-03-24T01:56:51.243Z,66.93
2019-03-24T01:59:24.016Z,67.06
2019-03-24T02:01:56.864Z,66.36
2019-03-24T02:04:30.496Z,66.57
2019-03-24T02:07:03.728Z,66.81
2019-03-24T02:09:36.401Z,66.51
2019-03-24T02:12:09.426Z,66.35
2019-03-24T02:14:42.383Z,66.50
2019-03-24T02:17:15.435Z,66.39
2019-03-24T02:19:48.384Z,67.21
2019-03-24T02:22:20.947Z,67.55
2019-03-24T02:24:54.015Z,66.90
2019-03-24T02:27:26.783Z,66.21
2019-03-24T02:29:59.805Z,65.91
2019-03-24T02:32:32.638Z,65.57
2019-03-24T02:35:05.765Z,65.20
2019-03-24T02:37:38.486Z,65.26
2019-03-24T02:40:12.296Z,64.99
2019-03-24T02:42:45.026Z,64.69
2019-03-24T02:45:17.867Z,64.73
2019-03-24T02:47:50.750Z,64.78
2019-03-24T02:50:23.488Z,64.77
2019-03-24T02:52:56.193Z,65.13
2019-03-24T02:55:29.198Z,65.24
2019-03-24T02:58:01.935Z,65.94
2019-03-24T03:00:34.817Z,65.48
2019-03-24T03:03:07.912Z,65.47
2019-03-24T03:05:40.565Z,65.64
2019-03-24T03:08:13.373Z,65.69
2019-03-24T03:10:46.216Z,65.94
2019-03-24T03:13:18.800Z,66.07
2019-03-24T03:15:51.587Z,66.16
2019-03-24T03:18:24.514Z,66.37
2019-03-24T03:20:58.364Z,66.62
2019-03-24T03:23:31.246Z,66.67
2019-03-24T03:26:05.102Z,66.43
2019-03-24T03:28:37.875Z,66.13
2019-03-24T03:31:10.818Z,65.46
2019-03-24T03:33:43.810Z,65.24
2019-03-24T03:36:16.565Z,64.92
2019-03-24T03:38:50.515Z,64.48
2019-03-24T03:41:23.207Z,63.76
2019-03-24T03:43:55.934Z,63.79
2019-03-24T03:46:28.594Z,63.17
2019-03-24T03:49:01.511Z,63.09
2019-03-24T03:51:34.330Z,62.41
2019-03-24T03:54:07.475Z,62.57
2019-03-24T03:56:40.300Z,62.70
2019-03-24T03:59:13.225Z,62.68
2019-03-24T04:01:46.210Z,62.85
2019-03-24T04:04:19.156Z,63.04
2019-03-24T04:06:51.997Z,63.15
2019-03-24T04:09:24.826Z,63.32
2019-03-24T04:11:57.637Z,63.44
2019-03-24T04:14:30.325Z,63.83
2019-03-24T04:17:07.445Z,64.11
2019-03-24T04:19:37.806Z,64.30
2019-03-24T04:22:10.504Z,64.36
2019-03-24T04:24:43.125Z,64.54
2019-03-24T04:27:15.867Z,64.99
2019-03-24T04:29:48.474Z,65.55
2019-03-24T04:32:21.207Z,65.95
2019-03-24T04:34:53.915Z,66.38
2019-03-24T04:37:27.054Z,66.88
2019-03-24T04:39:59.816Z,67.14
2019-03-24T04:42:32.654Z,67.44
2019-03-24T04:45:05.518Z,67.79
2019-03-24T04:47:38.164Z,68.20
2019-03-24T04:50:11.546Z,68.51
2019-03-24T04:52:44.284Z,68.59
2019-03-24T04:55:17.327Z,69.40
2019-03-24T04:57:50.162Z,71.16
2019-03-24T05:00:43.754Z,72.84
2019-03-24T05:03:17.064Z,70.72
2019-03-24T05:05:49.996Z,70.55
2019-03-24T05:08:24.515Z,70.60
2019-03-24T05:10:57.207Z,70.92
2019-03-24T05:13:29.794Z,72.67
2019-03-24T05:16:02.664Z,72.37
2019-03-24T05:18:35.294Z,72.31
2019-03-24T05:21:08.375Z,73.86
2019-03-24T05:23:41.004Z,72.42
2019-03-24T05:26:13.958Z,73.16
2019-03-24T05:28:46.774Z,72.73
2019-03-24T05:31:19.786Z,73.74
2019-03-24T05:33:52.454Z,73.68
2019-03-24T05:36:25.352Z,71.66
2019-03-24T05:38:57.994Z,72.69
2019-03-24T05:41:30.936Z,71.56
2019-03-24T05:44:03.665Z,74.33
2019-03-24T05:46:36.274Z,73.57
2019-03-24T05:49:09.225Z,70.28
2019-03-24T05:51:41.995Z,72.16
2019-03-24T05:54:14.863Z,71.92
2019-03-24T05:56:47.594Z,72.86
2019-03-24T05:59:20.645Z,71.68
2019-03-24T06:01:53.444Z,71.05
2019-03-24T06:04:26.304Z,70.11
2019-03-24T06:06:59.324Z,70.53
2019-03-24T06:09:32.784Z,70.02
2019-03-24T06:12:05.864Z,72.75
2019-03-24T06:14:38.674Z,69.70
2019-03-24T06:17:11.565Z,70.22
2019-03-24T06:19:44.284Z,71.84
2019-03-24T06:22:17.223Z,71.52
2019-03-24T06:24:50.502Z,69.53
2019-03-24T06:27:23.495Z,68.63
2019-03-24T06:29:56.094Z,69.17
2019-03-24T06:32:29.071Z,69.15
2019-03-24T06:35:03.987Z,68.07
2019-03-24T06:37:36.846Z,67.98
2019-03-24T06:40:09.915Z,68.45
2019-03-24T06:42:42.844Z,66.58
2019-03-24T06:45:15.825Z,66.83
2019-03-24T06:47:57.635Z,65.78
2019-03-24T06:50:23.264Z,65.68
2019-03-24T06:52:55.924Z,66.47
2019-03-24T06:55:29.199Z,66.00
2019-03-24T06:58:01.941Z,66.52
2019-03-24T07:00:35.011Z,65.56
2019-03-24T07:03:07.809Z,65.45
2019-03-24T07:05:40.878Z,64.99
2019-03-24T07:08:13.768Z,64.66
2019-03-24T07:10:47.048Z,64.01
2019-03-24T07:13:19.950Z,63.33
2019-03-24T07:15:52.569Z,62.03
2019-03-24T07:18:25.469Z,60.60
2019-03-24T07:20:57.930Z,58.74
2019-03-24T07:23:30.997Z,58.27
2019-03-24T07:26:03.838Z,57.42
2019-03-24T07:28:36.839Z,56.82
2019-03-24T07:31:09.602Z,56.51
2019-03-24T07:33:42.648Z,54.87
2019-03-24T07:36:15.342Z,53.73
2019-03-24T07:38:48.058Z,54.00
2019-03-24T07:41:20.788Z,53.56
2019-03-24T07:43:53.749Z,52.37
2019-03-24T07:46:26.469Z,52.20
2019-03-24T07:48:59.228Z,51.20
2019-03-24T07:51:31.859Z,50.62
2019-03-24T07:54:04.829Z,49.23
2019-03-24T07:56:37.819Z,50.65
2019-03-24T07:59:10.769Z,51.63
2019-03-24T08:01:43.549Z,50.64
2019-03-24T08:04:16.341Z,47.76
2019-03-24T08:06:49.208Z,50.52
2019-03-24T08:09:23.018Z,49.49
2019-03-24T08:11:55.738Z,46.48
2019-03-24T08:14:28.457Z,47.47
2019-03-24T08:17:01.189Z,47.54
2019-03-24T08:19:33.849Z,47.78
2019-03-24T08:22:06.720Z,46.98
2019-03-24T08:24:39.579Z,46.38
2019-03-24T08:27:12.368Z,45.31
2019-03-24T08:29:44.978Z,45.14
2019-03-24T08:32:17.989Z,45.33
2019-03-24T08:34:51.060Z,42.49
2019-03-24T08:37:23.859Z,45.03
2019-03-24T08:39:56.860Z,42.35
2019-03-24T08:42:30.019Z,44.49
2019-03-24T08:45:03.263Z,42.82
2019-03-24T08:47:36.029Z,43.96
2019-03-24T08:50:09.568Z,42.70
2019-03-24T08:52:42.539Z,41.36
2019-03-24T08:55:16.018Z,40.52
2019-03-24T08:57:48.802Z,40.66
2019-03-24T09:00:30.172Z,41.34
2019-03-24T09:02:55.922Z,37.75
2019-03-24T09:05:28.592Z,40.08
2019-03-24T09:08:01.209Z,38.80
2019-03-24T09:10:33.827Z,39.36
2019-03-24T09:13:06.509Z,39.58
2019-03-24T09:15:39.668Z,36.87
2019-03-24T09:18:12.261Z,36.64
2019-03-24T09:20:44.843Z,32.06
2019-03-24T09:23:17.558Z,34.58
2019-03-24T09:25:54.349Z,37.71
2019-03-24T09:28:26.970Z,38.38
2019-03-24T09:30:59.589Z,37.74
2019-03-24T09:33:32.279Z,35.83
2019-03-24T09:36:05.008Z,35.14
2019-03-24T09:38:37.859Z,34.27
2019-03-24T09:41:10.949Z,37.18
2019-03-24T09:43:43.700Z,31.24
2019-03-24T09:46:16.293Z,33.88
2019-03-24T09:48:50.588Z,31.42
2019-03-24T09:51:24.679Z,35.75
2019-03-24T09:53:57.298Z,35.18
2019-03-24T09:56:30.038Z,33.32
2019-03-24T09:59:06.111Z,28.36
2019-03-24T10:01:38.609Z,31.40
2019-03-24T10:04:11.268Z,31.21
2019-03-24T10:06:44.209Z,29.77
2019-03-24T10:09:16.780Z,33.09
2019-03-24T10:11:49.559Z,33.92
2019-03-24T10:14:22.351Z,33.11
2019-03-24T10:16:55.803Z,34.78
2019-03-24T10:19:28.489Z,33.64
2019-03-24T10:22:01.149Z,30.13
2019-03-24T10:24:33.870Z,32.65
2019-03-24T10:27:06.418Z,30.45
2019-03-24T10:29:38.988Z,28.09
2019-03-24T10:32:11.808Z,30.90
2019-03-24T10:34:44.409Z,31.29
2019-03-24T10:37:20.026Z,30.33
2019-03-24T10:39:52.729Z,32.62
2019-03-24T10:42:25.488Z,32.81
2019-03-24T10:44:58.010Z,29.95
2019-03-24T10:47:30.619Z,28.83
2019-03-24T10:50:03.268Z,28.38
2019-03-24T10:52:35.768Z,27.33
2019-03-24T10:55:10.309Z,28.70
2019-03-24T10:57:43.468Z,25.52
2019-03-24T11:00:18.568Z,29.43
2019-03-24T11:02:51.528Z,28.32
2019-03-24T11:05:24.163Z,27.85
2019-03-24T11:07:56.771Z,29.80
2019-03-24T11:10:29.329Z,25.35
2019-03-24T11:13:02.140Z,27.89
2019-03-24T11:15:35.772Z,26.43
2019-03-24T11:18:08.370Z,28.93
2019-03-24T11:20:41.049Z,30.26
2019-03-24T11:23:13.808Z,24.87
2019-03-24T11:25:46.559Z,25.69
2019-03-24T11:28:19.379Z,28.76
2019-03-24T11:30:53.362Z,26.37
2019-03-24T11:33:25.888Z,28.78
2019-03-24T11:35:58.418Z,28.84
2019-03-24T11:38:31.202Z,28.14
2019-03-24T11:41:03.980Z,23.12
2019-03-24T11:43:36.709Z,27.39
2019-03-24T11:46:09.190Z,27.11
2019-03-24T11:48:41.739Z,24.36
2019-03-24T11:51:14.348Z,25.98
2019-03-24T11:53:47.028Z,26.72
2019-03-24T11:56:19.850Z,25.88
2019-03-24T11:58:52.903Z,25.04
2019-03-24T12:01:26.809Z,26.81
2019-03-24T12:03:59.430Z,25.80
2019-03-24T12:06:32.149Z,25.34
2019-03-24T12:09:06.069Z,24.11
2019-03-24T12:11:38.959Z,26.48
2019-03-24T12:14:11.579Z,26.54
2019-03-24T12:16:44.169Z,26.49
2019-03-24T12:19:16.929Z,24.33
2019-03-24T12:21:49.829Z,21.07
2019-03-24T12:24:22.400Z,20.72
2019-03-24T12:26:55.288Z,23.31
2019-03-24T12:29:28.039Z,26.30
2019-03-24T12:32:01.009Z,26.59
2019-03-24T12:34:33.718Z,26.82
2019-03-24T12:37:06.459Z,23.57
2019-03-24T12:39:39.066Z,24.34
2019-03-24T12:42:11.818Z,24.85
2019-03-24T12:44:44.550Z,23.46
2019-03-24T12:47:17.188Z,26.46
2019-03-24T12:49:49.759Z,26.83
2019-03-24T12:52:22.509Z,26.66
2019-03-24T12:54:55.322Z,26.51
2019-03-24T12:57:27.907Z,25.59
2019-03-24T13:00:00.609Z,23.53
2019-03-24T13:02:33.386Z,26.02
2019-03-24T13:05:06.868Z,25.13
2019-03-24T13:07:39.671Z,23.17
2019-03-24T13:10:12.579Z,25.79
2019-03-24T13:12:45.099Z,25.24
2019-03-24T13:15:17.810Z,22.11
2019-03-24T13:17:50.514Z,25.22
2019-03-24T13:20:36.427Z,25.52
2019-03-24T13:22:57.710Z,24.59
2019-03-24T13:25:30.483Z,26.35
2019-03-24T13:28:03.099Z,27.13
2019-03-24T13:30:35.788Z,25.57
2019-03-24T13:33:08.638Z,26.49
2019-03-24T13:35:41.469Z,25.85
2019-03-24T13:38:14.320Z,26.13
2019-03-24T13:40:46.990Z,25.96
2019-03-24T13:43:19.619Z,27.05
2019-03-24T13:45:52.211Z,23.40
2019-03-24T13:48:25.171Z,25.68
2019-03-24T13:50:57.956Z,23.49
2019-03-24T13:53:30.669Z,26.41
2019-03-24T13:56:03.739Z,26.31
2019-03-24T13:58:36.390Z,24.58
2019-03-24T14:01:10.249Z,26.37
2019-03-24T14:03:43.138Z,23.79
2019-03-24T14:06:15.748Z,26.29
2019-03-24T14:08:48.468Z,25.18
2019-03-24T14:11:21.158Z,26.30
2019-03-24T14:13:53.962Z,24.73
2019-03-24T14:16:27.268Z,26.34
2019-03-24T14:18:59.888Z,26.76
2019-03-24T14:21:32.611Z,25.36
2019-03-24T14:24:05.269Z,25.21
2019-03-24T14:26:37.828Z,28.29
2019-03-24T14:29:10.750Z,27.42
2019-03-24T14:31:43.558Z,27.69
2019-03-24T14:34:16.148Z,27.65
2019-03-24T14:36:48.749Z,28.21
2019-03-24T14:39:21.859Z,28.87
2019-03-24T14:41:54.568Z,28.57
2019-03-24T14:44:27.088Z,29.61
2019-03-24T14:46:59.928Z,27.90
2019-03-24T14:49:32.690Z,28.67
2019-03-24T14:52:05.468Z,30.09
2019-03-24T14:54:37.999Z,30.42
2019-03-24T14:57:10.951Z,30.00
2019-03-24T14:59:43.801Z,30.70
2019-03-24T15:02:16.628Z,30.36
2019-03-24T15:04:49.259Z,30.93
2019-03-24T15:07:22.142Z,31.63
2019-03-24T15:09:54.968Z,31.45
2019-03-24T15:12:28.749Z,31.41
2019-03-24T15:15:01.388Z,30.84
2019-03-24T15:17:33.968Z,28.49
2019-03-24T15:20:07.269Z,30.17
2019-03-24T15:22:39.932Z,30.94
2019-03-24T15:25:12.888Z,30.46
2019-03-24T15:27:45.759Z,31.25
2019-03-24T15:30:18.740Z,31.63
2019-03-24T15:32:53.478Z,29.30
2019-03-24T15:35:26.330Z,30.93
2019-03-24T15:38:08.146Z,30.95
2019-03-24T15:40:34.571Z,30.87
2019-03-24T15:43:07.617Z,31.28
2019-03-24T15:45:40.259Z,30.52
2019-03-24T15:48:12.941Z,30.52
2019-03-24T15:50:48.409Z,31.01
2019-03-24T15:53:20.971Z,31.51
2019-03-24T15:55:53.670Z,31.39
2019-03-24T15:58:26.329Z,31.34
2019-03-24T16:00:58.968Z,31.62
2019-03-24T16:03:31.699Z,31.41
2019-03-24T16:06:04.388Z,31.56
2019-03-24T16:08:36.988Z,31.87
2019-03-24T16:11:09.668Z,32.12
2019-03-24T16:13:42.539Z,32.28
2019-03-24T16:16:15.250Z,32.44
2019-03-24T16:18:47.999Z,33.03
2019-03-24T16:21:27.712Z,33.34
2019-03-24T16:23:54.949Z,33.60
2019-03-24T16:26:27.658Z,33.78
2019-03-24T16:29:00.228Z,34.13
2019-03-24T16:31:32.931Z,34.15
2019-03-24T16:34:05.793Z,34.17
2019-03-24T16:36:38.429Z,34.79
2019-03-24T16:39:11.098Z,35.07
2019-03-24T16:41:43.748Z,35.40
2019-03-24T16:44:16.428Z,35.86
2019-03-24T16:46:48.968Z,36.44
2019-03-24T16:49:21.809Z,37.04
2019-03-24T16:51:55.109Z,37.33
2019-03-24T16:54:27.919Z,37.83
2019-03-24T16:57:00.598Z,38.35
2019-03-24T16:59:33.449Z,39.15
2019-03-24T17:02:06.318Z,39.34
2019-03-24T17:04:38.869Z,39.25
2019-03-24T17:07:11.690Z,39.20
2019-03-24T17:09:44.527Z,39.29
2019-03-24T17:12:17.468Z,39.17
2019-03-24T17:14:50.209Z,39.37
2019-03-24T17:17:22.848Z,39.83
2019-03-24T17:19:55.528Z,39.68
2019-03-24T17:22:30.282Z,40.42
2019-03-24T17:25:05.500Z,39.82
2019-03-24T17:27:38.918Z,40.38
2019-03-24T17:30:12.988Z,40.53
2019-03-24T17:32:46.108Z,40.21
2019-03-24T17:35:19.019Z,40.02
2019-03-24T17:37:51.728Z,39.71
2019-03-24T17:40:24.539Z,40.09
2019-03-24T17:42:57.496Z,40.09
2019-03-24T17:45:30.208Z,40.03
2019-03-24T17:48:02.929Z,40.04
2019-03-24T17:50:35.670Z,40.24
2019-03-24T17:53:08.589Z,40.39
2019-03-24T17:55:41.109Z,40.31
2019-03-24T17:58:14.989Z,40.16
2019-03-24T18:00:49.750Z,39.65
2019-03-24T18:03:22.253Z,39.67
2019-03-24T18:05:54.977Z,39.90
2019-03-24T18:08:27.758Z,40.06
2019-03-24T18:11:00.408Z,40.82
2019-03-24T18:13:32.922Z,41.85
2019-03-24T18:16:05.777Z,40.76
2019-03-24T18:18:38.622Z,41.27
2019-03-24T18:21:11.196Z,42.58
2019-03-24T18:23:43.699Z,43.18
2019-03-24T18:26:16.369Z,43.46
2019-03-24T18:28:48.828Z,42.99
2019-03-24T18:31:21.849Z,42.74
2019-03-24T18:33:54.429Z,43.11
2019-03-24T18:36:26.989Z,43.43
2019-03-24T18:38:59.749Z,43.47
2019-03-24T18:41:32.369Z,43.46
2019-03-24T18:44:06.368Z,43.99
2019-03-24T18:46:40.559Z,44.84
2019-03-24T18:49:13.171Z,45.57
2019-03-24T18:51:46.849Z,46.01
2019-03-24T18:54:19.479Z,46.11
2019-03-24T18:56:52.029Z,46.71
2019-03-24T18:59:24.619Z,47.07
2019-03-24T19:01:57.264Z,48.16
2019-03-24T19:04:29.820Z,48.33
2019-03-24T19:07:02.878Z,48.47
2019-03-24T19:09:36.388Z,48.90
2019-03-24T19:12:08.988Z,49.50
2019-03-24T19:14:41.619Z,49.19
2019-03-24T19:17:17.089Z,48.18
2019-03-24T19:19:49.819Z,48.23
2019-03-24T19:22:33.053Z,48.84
2019-03-24T19:24:56.823Z,49.15
2019-03-24T19:27:29.551Z,48.92
2019-03-24T19:30:02.137Z,49.31
2019-03-24T19:32:36.292Z,49.40
2019-03-24T19:35:09.208Z,49.27
2019-03-24T19:37:45.228Z,50.17
2019-03-24T19:40:31.991Z,50.04
2019-03-24T19:43:05.181Z,50.44
2019-03-24T19:45:38.038Z,50.28
2019-03-24T19:48:10.952Z,49.92
2019-03-24T19:50:43.859Z,50.72
2019-03-24T19:53:17.749Z,51.32
2019-03-24T19:55:51.531Z,51.35
2019-03-24T19:58:24.809Z,50.80
2019-03-24T20:00:57.799Z,50.79
2019-03-24T20:03:30.470Z,51.18
2019-03-24T20:06:03.437Z,51.92
2019-03-24T20:08:36.148Z,52.18
2019-03-24T20:11:08.809Z,52.03
2019-03-24T20:13:42.682Z,52.09
2019-03-24T20:16:15.539Z,52.42
2019-03-24T20:18:48.649Z,52.19
2019-03-24T20:21:21.739Z,52.07
2019-03-24T20:23:54.368Z,52.28
2019-03-24T20:26:28.159Z,52.27
2019-03-24T20:29:00.799Z,52.63
2019-03-24T20:31:34.474Z,53.02
2019-03-24T20:34:07.328Z,52.39
2019-03-24T20:36:40.056Z,52.86
2019-03-24T20:39:12.973Z,52.84
2019-03-24T20:41:45.920Z,53.17
2019-03-24T20:44:18.782Z,54.06
2019-03-24T20:46:51.561Z,53.99
2019-03-24T20:49:25.822Z,54.17
2019-03-24T20:51:58.518Z,54.19
2019-03-24T20:54:33.588Z,53.99
2019-03-24T20:57:06.543Z,55.07
2019-03-24T20:59:39.462Z,55.50
2019-03-24T21:02:12.189Z,55.45
2019-03-24T21:04:45.138Z,55.80
2019-03-24T21:07:17.821Z,56.07
2019-03-24T21:09:50.569Z,55.14
2019-03-24T21:12:23.828Z,54.92
2019-03-24T21:14:56.608Z,54.53
2019-03-24T21:17:29.293Z,54.81
2019-03-24T21:20:01.916Z,55.35
2019-03-24T21:22:34.519Z,55.19
2019-03-24T21:25:07.729Z,55.59
2019-03-24T21:27:40.600Z,55.59
2019-03-24T21:30:15.398Z,56.33
2019-03-24T21:32:47.988Z,55.83
2019-03-24T21:35:20.779Z,55.57
2019-03-24T21:37:53.799Z,56.37
2019-03-24T21:40:26.491Z,56.53
2019-03-24T21:42:59.597Z,57.20
2019-03-24T21:45:32.148Z,57.36
2019-03-24T21:48:05.399Z,57.83
2019-03-24T21:50:38.920Z,57.51
2019-03-24T21:53:11.681Z,57.21
2019-03-24T21:55:44.639Z,56.99
2019-03-24T21:58:17.258Z,56.97
2019-03-24T22:00:53.012Z,57.14
2019-03-24T22:03:25.608Z,57.40
2019-03-24T22:05:58.412Z,58.13
2019-03-24T22:08:31.199Z,58.56
2019-03-24T22:11:03.848Z,58.16
2019-03-24T22:13:36.523Z,58.72
2019-03-24T22:16:09.052Z,58.73
2019-03-24T22:18:41.838Z,58.71
2019-03-24T22:21:14.288Z,58.52
2019-03-24T22:23:52.140Z,58.88
2019-03-24T22:26:21.093Z,59.28
2019-03-24T22:28:53.728Z,59.71
2019-03-24T22:31:26.408Z,59.83
2019-03-24T22:33:59.175Z,59.48
2019-03-24T22:36:31.942Z,59.06
2019-03-24T22:39:08.020Z,59.38
2019-03-24T22:41:40.879Z,58.86
2019-03-24T22:44:14.242Z,59.05
2019-03-24T22:46:46.872Z,59.46
2019-03-24T22:49:19.985Z,59.46
2019-03-24T22:51:54.838Z,59.43
2019-03-24T22:54:27.249Z,59.87
2019-03-24T22:56:59.765Z,59.86
2019-03-24T22:59:32.509Z,60.05
2019-03-24T23:02:05.313Z,59.97
2019-03-24T23:04:37.817Z,60.11
2019-03-24T23:07:10.389Z,60.05
2019-03-24T23:09:43.009Z,60.47
2019-03-24T23:12:15.931Z,60.71
2019-03-24T23:14:48.889Z,61.76
2019-03-24T23:17:21.568Z,61.04
2019-03-24T23:19:54.491Z,60.89
2019-03-24T23:22:27.179Z,60.51
2019-03-24T23:24:59.699Z,60.82
2019-03-24T23:27:32.656Z,61.26
2019-03-24T23:30:07.499Z,61.11
2019-03-24T23:32:41.339Z,61.22
2019-03-24T23:35:13.949Z,61.76
2019-03-24T23:37:46.774Z,62.04
2019-03-24T23:40:19.388Z,62.72
2019-03-24T23:42:51.902Z,62.37
2019-03-24T23:45:24.343Z,62.55
2019-03-24T23:47:56.869Z,62.51
2019-03-24T23:50:29.639Z,62.53
2019-03-24T23:53:02.786Z,62.15
2019-03-24T23:55:35.968Z,62.85
2019-03-24T23:58:08.788Z,63.30
